createdAt,value
2022-08-17T00:02:00.502Z,11.02
2022-08-17T00:04:31.353Z,10.70
2022-08-17T00:06:57.790Z,11.18
2022-08-17T00:09:24.235Z,10.80
2022-08-17T00:12:40.866Z,9.75
2022-08-17T00:14:37.316Z,10.73
2022-08-17T00:17:04.580Z,10.10
2022-08-17T00:19:32.496Z,10.30
2022-08-17T00:22:33.213Z,10.77
2022-08-17T00:24:46.934Z,10.98
2022-08-17T00:27:13.363Z,10.45
2022-08-17T00:29:39.813Z,10.63
2022-08-17T00:33:14.382Z,10.32
2022-08-17T00:34:52.905Z,11.10
2022-08-17T00:37:19.328Z,11.27
2022-08-17T00:39:45.799Z,10.75
2022-08-17T00:42:17.551Z,11.73
2022-08-17T00:44:44.454Z,12.32
2022-08-17T00:47:10.863Z,12.07
2022-08-17T00:49:37.286Z,12.52
2022-08-17T00:52:11.650Z,12.90
2022-08-17T00:54:42.861Z,11.98
2022-08-17T00:57:24.977Z,14.80
2022-08-17T01:00:03.316Z,12.07
2022-08-17T01:02:44.439Z,12.13
2022-08-17T01:05:21.129Z,11.68
2022-08-17T01:07:50.680Z,11.68
2022-08-17T01:10:59.041Z,12.40
2022-08-17T01:13:07.365Z,13.15
2022-08-17T01:15:41.276Z,12.52
2022-08-17T01:18:13.499Z,12.38
2022-08-17T01:20:48.839Z,12.07
2022-08-17T01:23:20.593Z,12.70
2022-08-17T01:28:53.227Z,13.38
2022-08-17T01:31:07.542Z,12.70
2022-08-17T01:33:34.382Z,13.90
2022-08-17T01:36:00.801Z,13.35
2022-08-17T01:38:31.547Z,13.88
2022-08-17T01:41:04.673Z,13.60
2022-08-17T01:43:38.963Z,13.15
2022-08-17T01:46:05.654Z,13.40
2022-08-17T01:48:33.925Z,13.50
2022-08-17T01:51:00.896Z,12.90
2022-08-17T01:53:39.877Z,13.35
2022-08-17T01:56:09.469Z,13.07
2022-08-17T01:58:36.491Z,13.20
2022-08-17T02:01:04.522Z,13.55
2022-08-17T02:03:31.997Z,13.43
2022-08-17T02:05:58.556Z,14.40
2022-08-17T02:08:37.135Z,14.43
2022-08-17T02:11:11.646Z,13.88
2022-08-17T02:13:38.880Z,14.50
2022-08-17T02:16:05.307Z,14.30
2022-08-17T02:18:31.729Z,13.68
2022-08-17T02:20:58.349Z,14.38
2022-08-17T02:23:26.909Z,14.95
2022-08-17T02:25:53.906Z,12.80
2022-08-17T02:28:20.325Z,13.35
2022-08-17T02:30:59.759Z,13.82
2022-08-17T02:33:43.188Z,13.80
2022-08-17T02:36:11.307Z,12.75
2022-08-17T02:38:38.644Z,13.48
2022-08-17T02:41:05.212Z,13.40
2022-08-17T02:43:31.880Z,13.05
2022-08-17T02:45:58.314Z,11.98
2022-08-17T02:48:31.446Z,14.02
2022-08-17T02:50:59.096Z,12.30
2022-08-17T02:53:25.937Z,13.32
2022-08-17T02:55:52.577Z,13.40
2022-08-17T02:58:34.698Z,13.13
2022-08-17T03:01:03.234Z,13.25
2022-08-17T03:03:29.725Z,13.73
2022-08-17T03:05:56.322Z,14.63
2022-08-17T03:08:23.349Z,13.10
2022-08-17T03:10:50.321Z,13.30
2022-08-17T03:13:16.959Z,13.40
2022-08-17T03:15:45.168Z,12.48
2022-08-17T03:18:19.285Z,13.15
2022-08-17T03:20:52.422Z,13.75
2022-08-17T03:23:18.866Z,12.48
2022-08-17T03:25:52.966Z,13.48
2022-08-17T03:28:20.073Z,13.82
2022-08-17T03:30:46.502Z,13.55
2022-08-17T03:33:13.044Z,14.40
2022-08-17T03:35:40.332Z,13.40
2022-08-17T03:38:08.569Z,13.02
2022-08-17T03:40:56.753Z,13.48
2022-08-17T03:43:22.598Z,13.45
2022-08-17T03:46:10.075Z,13.70
2022-08-17T03:49:14.577Z,16.10
2022-08-17T03:51:59.489Z,15.35
2022-08-17T03:54:44.216Z,15.93
2022-08-17T03:57:11.216Z,16.02
2022-08-17T03:59:38.720Z,15.95
2022-08-17T04:02:14.244Z,15.95
2022-08-17T04:04:40.681Z,15.73
2022-08-17T04:07:07.339Z,15.73
2022-08-17T04:09:34.012Z,16.20
2022-08-17T04:12:02.411Z,15.73
2022-08-17T04:14:39.193Z,15.00
2022-08-17T04:17:21.135Z,16.17
2022-08-17T04:19:47.564Z,15.25
2022-08-17T04:22:32.681Z,16.08
2022-08-17T04:25:04.277Z,16.10
2022-08-17T04:27:30.713Z,16.27
2022-08-17T04:29:58.408Z,15.90
2022-08-17T04:33:04.735Z,17.42
2022-08-17T04:35:11.252Z,17.17
2022-08-17T04:37:37.651Z,16.17
2022-08-17T04:40:27.433Z,15.32
2022-08-17T04:43:04.805Z,15.95
2022-08-17T04:45:32.309Z,15.73
2022-08-17T04:47:59.544Z,16.83
2022-08-17T04:50:26.026Z,16.08
2022-08-17T04:52:52.457Z,16.70
2022-08-17T04:55:18.983Z,16.33
2022-08-17T04:57:45.438Z,15.13
2022-08-17T05:00:12.248Z,15.73
2022-08-17T05:02:50.745Z,17.20
2022-08-17T05:05:22.885Z,17.10
2022-08-17T05:07:54.368Z,16.52
2022-08-17T05:10:25.450Z,18.02
2022-08-17T05:13:09.414Z,18.13
2022-08-17T05:15:38.981Z,17.20
2022-08-17T05:18:12.975Z,17.90
2022-08-17T05:20:40.708Z,17.80
2022-08-17T05:23:10.539Z,18.10
2022-08-17T05:25:48.720Z,17.10
2022-08-17T05:28:18.359Z,19.05
2022-08-17T05:30:45.786Z,18.77
2022-08-17T05:33:21.354Z,18.45
2022-08-17T05:38:16.808Z,17.25
2022-08-17T05:40:43.841Z,17.38
2022-08-17T05:43:14.983Z,16.30
2022-08-17T05:46:02.794Z,16.75
2022-08-17T05:48:39.592Z,17.52
2022-08-17T05:51:06.767Z,17.80
2022-08-17T05:53:44.045Z,16.92
2022-08-17T05:56:56.526Z,18.48
2022-08-17T05:59:59.668Z,17.20
2022-08-17T06:02:54.091Z,17.17
2022-08-17T06:05:38.940Z,17.25
2022-08-17T06:08:48.142Z,17.45
2022-08-17T06:11:42.305Z,16.33
2022-08-17T06:14:29.092Z,17.25
2022-08-17T06:17:00.978Z,16.38
2022-08-17T06:19:40.583Z,15.63
2022-08-17T06:22:08.749Z,16.58
2022-08-17T06:24:43.380Z,15.73
2022-08-17T06:27:25.570Z,16.15
2022-08-17T06:32:25.653Z,15.63
2022-08-17T06:34:52.547Z,15.27
2022-08-17T06:37:43.044Z,14.90
2022-08-17T06:40:15.588Z,14.25
2022-08-17T06:43:07.466Z,15.05
2022-08-17T06:45:42.257Z,14.15
2022-08-17T06:48:17.750Z,14.23
2022-08-17T06:50:49.780Z,15.13
2022-08-17T06:55:52.110Z,13.45
2022-08-17T06:58:22.225Z,11.73
2022-08-17T07:00:58.082Z,12.15
2022-08-17T07:03:54.649Z,11.85
2022-08-17T07:06:29.907Z,11.95
2022-08-17T07:09:28.033Z,12.50
2022-08-17T07:12:00.734Z,12.38
2022-08-17T07:14:31.897Z,11.18
2022-08-17T07:17:01.938Z,11.50
2022-08-17T07:19:31.621Z,10.80
2022-08-17T07:22:08.805Z,10.63
2022-08-17T07:24:57.647Z,11.65
2022-08-17T07:27:52.081Z,9.98
2022-08-17T07:30:25.674Z,10.27
2022-08-17T07:33:01.250Z,10.38
2022-08-17T07:35:31.275Z,9.98
2022-08-17T07:38:32.056Z,9.93
2022-08-17T07:41:01.808Z,8.80
2022-08-17T07:43:34.816Z,9.45
2022-08-17T07:46:39.725Z,8.80
2022-08-17T07:49:08.999Z,9.10
2022-08-17T07:51:43.704Z,8.40
2022-08-17T07:54:15.883Z,7.75
2022-08-17T07:57:08.335Z,8.32
2022-08-17T07:59:40.710Z,7.95
2022-08-17T08:02:38.563Z,8.18
2022-08-17T08:05:12.787Z,8.00
2022-08-17T08:07:48.225Z,7.50
2022-08-17T08:10:27.560Z,7.32
2022-08-17T08:13:24.045Z,7.65
2022-08-17T08:15:56.318Z,7.30
2022-08-17T08:18:55.041Z,8.00
2022-08-17T08:21:28.947Z,7.40
2022-08-17T08:24:01.396Z,7.75
2022-08-17T08:26:42.319Z,7.68
2022-08-17T08:29:28.065Z,6.90
2022-08-17T08:32:23.676Z,6.60
2022-08-17T08:35:11.343Z,6.70
2022-08-17T08:37:52.883Z,6.47
2022-08-17T08:40:38.289Z,5.68
2022-08-17T08:43:42.117Z,5.88
2022-08-17T08:46:39.465Z,5.68
2022-08-17T08:49:59.115Z,5.50
2022-08-17T08:52:49.870Z,5.47
2022-08-17T08:58:31.744Z,6.18
2022-08-17T09:00:58.306Z,5.32
2022-08-17T09:03:52.678Z,5.78
2022-08-17T09:06:39.835Z,5.35
2022-08-17T09:09:33.649Z,5.10
2022-08-17T09:12:25.847Z,4.95
2022-08-17T09:15:13.226Z,5.50
2022-08-17T09:19:03.565Z,5.60
2022-08-17T09:21:33.657Z,4.65
2022-08-17T09:24:32.970Z,4.25
2022-08-17T09:27:11.609Z,4.25
2022-08-17T09:29:41.274Z,4.47
2022-08-17T09:32:22.501Z,4.30
2022-08-17T09:35:00.169Z,4.43
2022-08-17T09:37:49.972Z,4.20
2022-08-17T09:40:24.437Z,4.10
2022-08-17T09:42:59.161Z,5.47
2022-08-17T09:45:35.915Z,4.03
2022-08-17T09:48:08.673Z,4.18
2022-08-17T09:51:05.377Z,4.43
2022-08-17T09:53:25.247Z,3.67
2022-08-17T09:55:57.934Z,4.70
2022-08-17T09:58:42.490Z,4.63
2022-08-17T10:01:31.463Z,4.20
2022-08-17T10:04:29.877Z,4.03
2022-08-17T10:07:12.705Z,4.30
2022-08-17T10:10:13.548Z,4.30
2022-08-17T10:12:54.100Z,4.05
2022-08-17T10:15:43.012Z,4.03
2022-08-17T10:18:32.173Z,4.50
2022-08-17T10:21:20.493Z,4.20
2022-08-17T10:24:19.028Z,4.50
2022-08-17T10:26:56.651Z,4.55
2022-08-17T10:29:47.334Z,4.80
2022-08-17T10:35:17.950Z,4.93
2022-08-17T10:37:47.267Z,3.90
2022-08-17T10:40:53.008Z,5.00
2022-08-17T10:43:38.413Z,4.38
2022-08-17T10:46:33.504Z,5.03
2022-08-17T10:49:20.979Z,4.65
2022-08-17T10:51:49.711Z,4.70
2022-08-17T10:54:24.964Z,4.55
2022-08-17T10:56:55.954Z,4.82
2022-08-17T10:59:34.549Z,4.68
2022-08-17T11:02:00.847Z,5.07
2022-08-17T11:04:39.153Z,5.25
2022-08-17T11:07:08.486Z,6.00
2022-08-17T11:09:58.311Z,5.68
2022-08-17T11:12:33.687Z,5.70
2022-08-17T11:15:16.260Z,6.47
2022-08-17T11:17:57.444Z,6.47
2022-08-17T11:20:38.349Z,6.72
2022-08-17T11:23:30.296Z,6.55
2022-08-17T11:25:58.855Z,7.07
2022-08-17T11:28:34.182Z,7.10
2022-08-17T11:31:23.583Z,6.80
2022-08-17T11:34:26.199Z,6.90
2022-08-17T11:37:00.919Z,8.32
2022-08-17T11:40:06.483Z,7.57
2022-08-17T11:42:57.083Z,8.15
2022-08-17T11:45:35.880Z,8.68
2022-08-17T11:48:40.609Z,8.65
2022-08-17T11:51:32.149Z,8.85
2022-08-17T11:54:33.763Z,8.55
2022-08-17T12:00:11.092Z,8.52
2022-08-17T12:02:48.475Z,9.77
2022-08-17T12:05:16.706Z,10.05
2022-08-17T12:07:46.930Z,10.88
2022-08-17T12:10:21.404Z,10.13
2022-08-17T12:12:50.141Z,10.88
2022-08-17T12:15:19.274Z,9.20
2022-08-17T12:17:53.747Z,11.55
2022-08-17T12:20:29.283Z,10.65
2022-08-17T12:23:04.805Z,10.57
2022-08-17T12:25:41.174Z,11.73
2022-08-17T12:28:28.561Z,11.88
2022-08-17T12:31:01.058Z,12.20
2022-08-17T12:33:28.855Z,11.85
2022-08-17T12:36:02.763Z,11.20
2022-08-17T12:38:34.296Z,12.85
2022-08-17T12:41:21.705Z,12.30
2022-08-17T12:44:01.999Z,11.60
2022-08-17T12:46:51.572Z,11.88
2022-08-17T12:49:42.103Z,14.93
2022-08-17T12:52:12.211Z,14.75
2022-08-17T12:54:51.165Z,14.57
2022-08-17T12:57:21.777Z,15.32
2022-08-17T13:00:08.744Z,15.82
2022-08-17T13:02:54.792Z,15.10
2022-08-17T13:05:29.099Z,16.92
2022-08-17T13:07:58.120Z,16.00
2022-08-17T13:10:33.441Z,16.23
2022-08-17T13:13:05.181Z,15.45
2022-08-17T13:18:28.129Z,16.45
2022-08-17T13:20:58.056Z,17.30
2022-08-17T13:23:26.177Z,16.63
2022-08-17T13:26:04.433Z,15.55
2022-08-17T13:28:36.281Z,14.85
2022-08-17T13:31:21.829Z,15.02
2022-08-17T13:33:49.188Z,18.23
2022-08-17T13:36:30.200Z,18.10
2022-08-17T13:39:13.390Z,19.52
2022-08-17T13:41:39.859Z,19.70
2022-08-17T13:44:37.082Z,15.52
2022-08-17T13:47:16.920Z,16.73
2022-08-17T13:49:49.048Z,16.65
2022-08-17T13:52:35.816Z,15.57
2022-08-17T13:55:18.355Z,18.85
2022-08-17T13:57:47.105Z,16.60
2022-08-17T14:00:18.763Z,19.25
2022-08-17T14:02:45.181Z,16.60
2022-08-17T14:05:11.730Z,16.00
2022-08-17T14:07:40.468Z,15.23
2022-08-17T14:10:17.233Z,17.50
2022-08-17T14:12:44.616Z,17.70
2022-08-17T14:15:13.753Z,19.67
2022-08-17T14:17:40.197Z,21.23
2022-08-17T14:20:09.612Z,20.35
2022-08-17T14:22:37.717Z,20.55
2022-08-17T14:25:05.071Z,22.77
2022-08-17T14:27:47.469Z,25.10
2022-08-17T14:30:20.007Z,21.25
2022-08-17T14:32:48.950Z,25.55
2022-08-17T14:35:16.062Z,25.58
2022-08-17T14:37:42.864Z,24.27
2022-08-17T14:40:11.763Z,20.55
2022-08-17T14:42:40.978Z,24.58
2022-08-17T14:45:31.874Z,26.20
2022-08-17T14:47:56.684Z,25.17
2022-08-17T14:50:24.064Z,27.20
2022-08-17T14:52:50.544Z,25.10
2022-08-17T14:55:18.216Z,26.70
2022-08-17T14:57:45.039Z,25.15
2022-08-17T15:00:11.974Z,24.80
2022-08-17T15:02:54.000Z,24.40
2022-08-17T15:05:25.881Z,28.15
2022-08-17T15:07:55.699Z,26.67
2022-08-17T15:10:22.420Z,23.83
2022-08-17T15:12:49.065Z,24.70
2022-08-17T15:15:16.947Z,23.15
2022-08-17T15:17:45.901Z,25.33
2022-08-17T15:20:15.614Z,31.13
2022-08-17T15:22:44.341Z,29.65
2022-08-17T15:25:11.545Z,31.83
2022-08-17T15:27:38.027Z,33.63
2022-08-17T15:30:05.956Z,33.10
2022-08-17T15:32:38.014Z,33.65
2022-08-17T15:35:06.485Z,35.38
2022-08-17T15:37:33.333Z,34.92
2022-08-17T15:40:02.946Z,38.35
2022-08-17T15:42:29.503Z,35.47
2022-08-17T15:44:56.033Z,38.72
2022-08-17T15:47:23.265Z,38.97
2022-08-17T15:49:50.747Z,41.50
2022-08-17T15:52:25.129Z,42.05
2022-08-17T15:54:56.625Z,38.45
2022-08-17T15:57:26.914Z,41.15
2022-08-17T15:59:58.886Z,38.38
2022-08-17T16:03:44.413Z,40.28
2022-08-17T16:05:25.183Z,42.80
2022-08-17T16:07:52.560Z,38.63
2022-08-17T16:10:19.706Z,37.10
2022-08-17T16:12:48.216Z,36.53
2022-08-17T16:15:15.318Z,36.10
2022-08-17T16:17:41.810Z,38.00
2022-08-17T16:20:19.601Z,37.88
2022-08-17T16:22:47.277Z,38.60
2022-08-17T16:25:20.299Z,37.55
2022-08-17T16:27:48.654Z,36.05
2022-08-17T16:30:17.649Z,38.92
2022-08-17T16:32:44.983Z,40.88
2022-08-17T16:35:12.146Z,39.75
2022-08-17T16:37:40.184Z,40.53
2022-08-17T16:40:11.778Z,36.53
2022-08-17T16:42:39.589Z,44.80
2022-08-17T16:45:16.761Z,44.97
2022-08-17T16:47:43.593Z,41.88
2022-08-17T16:50:12.548Z,40.88
2022-08-17T16:52:40.001Z,45.83
2022-08-17T16:55:08.675Z,46.33
2022-08-17T16:57:37.273Z,43.83
2022-08-17T17:00:15.937Z,40.67
2022-08-17T17:02:47.881Z,40.53
2022-08-17T17:05:37.689Z,41.45
2022-08-17T17:08:12.670Z,39.95
2022-08-17T17:10:45.673Z,38.20
2022-08-17T17:13:27.753Z,37.20
2022-08-17T17:16:21.741Z,38.25
2022-08-17T17:19:01.525Z,38.95
2022-08-17T17:21:35.367Z,40.05
2022-08-17T17:24:09.360Z,37.80
2022-08-17T17:26:57.969Z,35.83
2022-08-17T17:29:48.545Z,38.58
2022-08-17T17:32:44.460Z,37.42
2022-08-17T17:35:16.308Z,36.03
2022-08-17T17:40:23.749Z,33.78
2022-08-17T17:42:55.967Z,38.67
2022-08-17T17:45:23.815Z,37.15
2022-08-17T17:47:50.512Z,36.70
2022-08-17T17:50:19.200Z,39.75
2022-08-17T17:53:17.896Z,39.22
2022-08-17T17:56:34.933Z,38.65
2022-08-17T17:59:16.178Z,38.55
2022-08-17T18:02:36.854Z,39.70
2022-08-17T18:05:18.484Z,37.38
2022-08-17T18:07:54.216Z,33.35
2022-08-17T18:10:29.562Z,35.83
2022-08-17T18:13:08.973Z,36.63
2022-08-17T18:15:51.568Z,35.58
2022-08-17T18:18:17.899Z,37.45
2022-08-17T18:20:53.839Z,38.20
2022-08-17T18:23:27.695Z,36.83
2022-08-17T18:25:55.066Z,36.45
2022-08-17T18:28:26.736Z,37.92
2022-08-17T18:31:22.557Z,35.65
2022-08-17T18:33:51.593Z,36.35
2022-08-17T18:36:32.462Z,35.72
2022-08-17T18:39:17.653Z,37.75
2022-08-17T18:41:50.319Z,41.10
2022-08-17T18:44:25.338Z,39.35
2022-08-17T18:47:19.091Z,40.00
2022-08-17T18:50:10.855Z,37.63
2022-08-17T18:52:37.311Z,39.83
2022-08-17T18:55:16.416Z,38.33
2022-08-17T18:57:49.672Z,37.58
2022-08-17T19:00:20.458Z,37.67
2022-08-17T19:02:55.827Z,39.63
2022-08-17T19:05:33.386Z,38.55
2022-08-17T19:08:20.469Z,40.17
2022-08-17T19:10:49.259Z,35.60
2022-08-17T19:13:24.518Z,38.47
2022-08-17T19:16:13.027Z,37.67
2022-08-17T19:18:50.956Z,40.53
2022-08-17T19:25:19.433Z,39.22
2022-08-17T19:31:35.434Z,41.17
2022-08-17T19:34:01.906Z,42.70
2022-08-17T19:36:50.176Z,40.67
2022-08-17T19:39:38.366Z,42.17
2022-08-17T19:42:14.158Z,42.95
2022-08-17T19:48:39.049Z,45.05
2022-08-17T19:51:10.597Z,44.85
2022-08-17T19:54:04.913Z,44.28
2022-08-17T19:56:44.474Z,43.03
2022-08-17T19:59:36.018Z,39.13
2022-08-17T20:02:28.236Z,44.25
2022-08-17T20:04:59.165Z,39.92
2022-08-17T20:07:45.496Z,40.47
2022-08-17T20:10:30.855Z,36.60
2022-08-17T20:13:04.048Z,40.25
2022-08-17T20:15:34.416Z,41.78
2022-08-17T20:18:02.708Z,41.83
2022-08-17T20:20:47.242Z,40.45
2022-08-17T20:23:30.693Z,41.95
2022-08-17T20:26:08.366Z,43.50
2022-08-17T20:28:38.817Z,44.40
2022-08-17T20:31:38.688Z,46.28
2022-08-17T20:34:37.345Z,47.83
2022-08-17T20:37:13.045Z,46.53
2022-08-17T20:39:44.644Z,48.90
2022-08-17T20:42:30.763Z,49.53
2022-08-17T20:45:05.458Z,49.05
2022-08-17T20:47:55.339Z,48.60
2022-08-17T20:50:35.500Z,46.92
2022-08-17T20:55:51.426Z,45.63
2022-08-17T20:58:36.923Z,43.83
2022-08-17T21:01:12.134Z,46.83
2022-08-17T21:03:51.304Z,48.97
2022-08-17T21:06:20.481Z,48.17
2022-08-17T21:08:58.717Z,46.55
2022-08-17T21:11:56.864Z,46.92
2022-08-17T21:14:31.534Z,49.33
2022-08-17T21:17:01.335Z,46.28
2022-08-17T21:20:00.192Z,47.33
2022-08-17T21:23:00.762Z,48.53
2022-08-17T21:26:04.214Z,46.78
2022-08-17T21:29:30.230Z,47.75
2022-08-17T21:32:03.755Z,54.55
2022-08-17T21:34:37.813Z,54.40
2022-08-17T21:37:23.331Z,52.88
2022-08-17T21:39:57.498Z,51.70
2022-08-17T21:42:33.903Z,55.13
2022-08-17T21:45:22.407Z,55.50
2022-08-17T21:47:51.046Z,54.30
2022-08-17T21:50:23.462Z,51.78
2022-08-17T21:52:53.882Z,57.33
2022-08-17T21:55:28.009Z,55.95
2022-08-17T21:58:13.502Z,58.08
2022-08-17T22:00:41.733Z,56.63
2022-08-17T22:03:22.454Z,59.70
2022-08-17T22:05:51.126Z,55.88
2022-08-17T22:08:26.799Z,58.70
2022-08-17T22:11:01.282Z,60.78
2022-08-17T22:13:29.786Z,61.35
2022-08-17T22:16:29.477Z,63.30
2022-08-17T22:18:58.257Z,59.10
2022-08-17T22:21:25.526Z,58.70
2022-08-17T22:24:05.089Z,52.72
2022-08-17T22:27:00.010Z,53.22
2022-08-17T22:30:00.202Z,52.75
2022-08-17T22:32:42.239Z,51.08
2022-08-17T22:35:26.794Z,51.15
2022-08-17T22:37:53.272Z,52.17
2022-08-17T22:40:32.026Z,52.10
2022-08-17T22:43:00.709Z,52.63
2022-08-17T22:45:29.679Z,55.80
2022-08-17T22:47:57.538Z,55.78
2022-08-17T22:50:31.451Z,56.88
2022-08-17T22:53:22.490Z,55.30
2022-08-17T22:56:12.736Z,54.25
2022-08-17T22:59:08.617Z,56.20
2022-08-17T23:01:35.459Z,55.67
2022-08-17T23:04:15.911Z,56.15
2022-08-17T23:06:42.484Z,60.10
2022-08-17T23:09:09.204Z,60.38
2022-08-17T23:11:49.958Z,60.47
2022-08-17T23:14:19.022Z,59.00
2022-08-17T23:16:45.565Z,62.53
2022-08-17T23:19:15.378Z,56.22
2022-08-17T23:21:44.633Z,59.08
2022-08-17T23:24:16.012Z,61.17
2022-08-17T23:26:42.442Z,60.13
2022-08-17T23:29:09.328Z,59.65
2022-08-17T23:31:38.442Z,56.75
2022-08-17T23:34:08.993Z,55.58
2022-08-17T23:36:35.937Z,54.70
2022-08-17T23:39:02.673Z,59.63
2022-08-17T23:41:34.412Z,57.75
2022-08-17T23:44:01.722Z,62.20
2022-08-17T23:46:28.161Z,66.07
2022-08-17T23:48:54.618Z,71.75
2022-08-17T23:51:26.302Z,70.25
2022-08-17T23:53:55.405Z,69.35
2022-08-17T23:56:25.697Z,67.70
2022-08-17T23:58:54.658Z,67.85
